Greenford, Ohio
Current Conditions -  °F | °C
As of 8:24 PM on Friday 28 Nov 2014 (Local Time) from KYNG Reporting Station
Light Snow Light Snow  
Wind Chill: 16°   Ceiling: 2300
Heat Index: 25°   Visibility: 3mi
Dew Point: 19°   Wind: 8mph
Humidity: 78%   Direction: 180°S
Pressure: 30.18"   Gusts: NA
Location:  40.94°N, 80.79°W
Report Text: KYNG 290124Z 18007KT 3SM -SN BKN023 OVC035 M04/M07 A3018 RMK AO2 SNB12 P0000 T10391072
Loading
Personal Weather Stations






























Interactive Weather Map New forecast layout! Learn more

10-Day Weather Forecast

Advertisements
Track Severe Weather on mobile